Pagina principale
METAR-TAF:

METAR-TAF

Aeroporti :

Buochs, Svizzera

latitudine: 46-58-28N, longitudine: 8-23-49E, altezza: 449 m

Osservazione

Il bollettino è stato emesso 26 minuti fa, alle 11:50 UTC
Vento 3 kt da est/nord-est
Temperature 12°C
Umidità 67%
Pressione 1025 hPa
Visibilità 10 km o più
Poco nuvoloso ad un'altezza di 4500 ft
Nuvoloso ad un'altezza di 6500 ft

METAR: LSZC 261150Z 06003KT 9999 FEW045 BKN065 12/06 Q1025

Ora: 14:16 (12:16 UTC)

Previsione

Il bollettino è stato emesso 51 minuti fa, alle 11:25 UTC
Previsione valida dal 26 alle 12 UTC al 26 alle 21 UTC
Vento 2 kt da direzioni variabili
Visibilità 10 km o più
Poco nuvoloso ad un'altezza di 2000 ft
Nuvoloso ad un'altezza di 6000 ft
Evoluzione graduale
dal 26 alle 18 UTC al 26 alle 21 UTC
Visibilità 10 km o più
nessuna nube inferiore a 1500 m e nessun cumulonembo

TAF: LSZC 261125Z 2612/2621 VRB02KT 9999 FEW020 BKN060 BECMG 2618/2621 CAVOK

Osservazioni e previsioni meteorologiche di più di 4000 aeroporti (messaggi METAR e TAF).

Le stazioni disponibili sono rappresentate dai dischi gialli e rossi sulla carta.

Puntare il mouse per vedere il nome della stazione.

Clicca sopra per visualizzare le osservazioni e previsioni meteorologiche.

Per cambiare la mappa : fare clic sui pulsanti verdi con una croce nera per ingrandire, il pulsante verde con un trattino per diminuire, o sulla freccia verde per le mappe adiacenti.


METAR-TAF: